sensor_id;sensor_type;location;lat;lon;timestamp;pressure;altitude;pressure_sealevel;temperature;humidity
39487;BME280;25173;50.430;18.926;2022-11-15T00:02:54;98578.88;;;9.66;69.30
39487;BME280;25173;50.430;18.926;2022-11-15T00:06:13;98567.50;;;9.69;69.29
39487;BME280;25173;50.430;18.926;2022-11-15T00:09:32;98565.88;;;9.68;69.03
39487;BME280;25173;50.430;18.926;2022-11-15T00:12:52;98560.91;;;9.60;69.11
39487;BME280;25173;50.430;18.926;2022-11-15T00:16:11;98563.03;;;9.58;69.22
39487;BME280;25173;50.430;18.926;2022-11-15T00:19:30;98561.69;;;9.56;69.28
39487;BME280;25173;50.430;18.926;2022-11-15T00:22:50;98562.22;;;9.58;69.41
39487;BME280;25173;50.430;18.926;2022-11-15T00:26:12;98551.41;;;9.63;69.33
39487;BME280;25173;50.430;18.926;2022-11-15T00:29:31;98547.03;;;9.62;69.10
39487;BME280;25173;50.430;18.926;2022-11-15T00:32:51;98546.75;;;9.63;69.35
39487;BME280;25173;50.430;18.926;2022-11-15T00:36:10;98541.28;;;9.58;69.37
39487;BME280;25173;50.430;18.926;2022-11-15T00:39:30;98537.13;;;9.51;69.25
39487;BME280;25173;50.430;18.926;2022-11-15T00:42:49;98527.25;;;9.40;69.38
39487;BME280;25173;50.430;18.926;2022-11-15T00:46:09;98523.94;;;9.32;69.70
39487;BME280;25173;50.430;18.926;2022-11-15T00:49:28;98516.53;;;9.28;69.42
39487;BME280;25173;50.430;18.926;2022-11-15T00:52:47;98518.63;;;9.21;69.43
39487;BME280;25173;50.430;18.926;2022-11-15T00:56:07;98513.38;;;9.09;69.27
39487;BME280;25173;50.430;18.926;2022-11-15T00:59:26;98512.50;;;9.04;69.51
39487;BME280;25173;50.430;18.926;2022-11-15T01:02:45;98509.78;;;9.04;69.59
39487;BME280;25173;50.430;18.926;2022-11-15T01:06:05;98507.81;;;8.99;69.54
39487;BME280;25173;50.430;18.926;2022-11-15T01:09:25;98508.63;;;9.00;69.43
39487;BME280;25173;50.430;18.926;2022-11-15T01:12:44;98494.13;;;8.89;69.31
39487;BME280;25173;50.430;18.926;2022-11-15T01:16:12;98501.97;;;8.85;69.53
39487;BME280;25173;50.430;18.926;2022-11-15T01:19:32;98503.03;;;8.84;69.63
39487;BME280;25173;50.430;18.926;2022-11-15T01:22:51;98493.00;;;8.85;69.50
39487;BME280;25173;50.430;18.926;2022-11-15T01:26:13;98492.75;;;8.86;69.60
39487;BME280;25173;50.430;18.926;2022-11-15T01:29:33;98489.00;;;8.92;69.63
39487;BME280;25173;50.430;18.926;2022-11-15T01:32:52;98486.06;;;8.99;69.43
39487;BME280;25173;50.430;18.926;2022-11-15T01:36:18;98476.06;;;9.05;69.37
39487;BME280;25173;50.430;18.926;2022-11-15T01:39:37;98476.03;;;9.00;69.19
39487;BME280;25173;50.430;18.926;2022-11-15T01:42:56;98476.44;;;8.86;69.33
39487;BME280;25173;50.430;18.926;2022-11-15T01:46:25;98472.03;;;8.80;69.57
39487;BME280;25173;50.430;18.926;2022-11-15T01:50:00;98473.69;;;8.81;69.56
39487;BME280;25173;50.430;18.926;2022-11-15T01:53:21;98463.28;;;8.73;69.38
39487;BME280;25173;50.430;18.926;2022-11-15T01:56:46;98463.16;;;8.63;69.55
39487;BME280;25173;50.430;18.926;2022-11-15T02:00:08;98455.16;;;8.51;69.67
39487;BME280;25173;50.430;18.926;2022-11-15T02:03:35;98449.97;;;8.50;69.89
39487;BME280;25173;50.430;18.926;2022-11-15T02:06:58;98435.81;;;8.48;69.95
39487;BME280;25173;50.430;18.926;2022-11-15T02:10:21;98439.56;;;8.42;69.99
39487;BME280;25173;50.430;18.926;2022-11-15T02:13:41;98440.31;;;8.37;70.08
39487;BME280;25173;50.430;18.926;2022-11-15T02:21:03;98429.47;;;8.37;70.28
39487;BME280;25173;50.430;18.926;2022-11-15T02:31:55;98418.97;;;8.46;70.23
39487;BME280;25173;50.430;18.926;2022-11-15T02:35:39;98421.81;;;8.56;70.01
39487;BME280;25173;50.430;18.926;2022-11-15T02:39:10;98422.31;;;8.53;69.95
39487;BME280;25173;50.430;18.926;2022-11-15T02:42:35;98414.72;;;8.55;70.11
39487;BME280;25173;50.430;18.926;2022-11-15T02:50:07;98409.72;;;8.69;69.73
39487;BME280;25173;50.430;18.926;2022-11-15T02:53:28;98408.91;;;8.68;69.76
39487;BME280;25173;50.430;18.926;2022-11-15T02:56:48;98408.91;;;8.68;69.68
39487;BME280;25173;50.430;18.926;2022-11-15T03:00:19;98396.97;;;8.69;69.74
39487;BME280;25173;50.430;18.926;2022-11-15T03:04:14;98393.19;;;8.70;69.68
39487;BME280;25173;50.430;18.926;2022-11-15T03:08:00;98391.50;;;8.64;69.58
39487;BME280;25173;50.430;18.926;2022-11-15T03:11:21;98385.69;;;8.55;69.76
39487;BME280;25173;50.430;18.926;2022-11-15T03:14:58;98375.63;;;8.51;69.79
39487;BME280;25173;50.430;18.926;2022-11-15T03:18:24;98378.00;;;8.47;69.96
39487;BME280;25173;50.430;18.926;2022-11-15T03:21:47;98383.63;;;8.41;69.93
39487;BME280;25173;50.430;18.926;2022-11-15T03:25:10;98383.59;;;8.36;70.03
39487;BME280;25173;50.430;18.926;2022-11-15T03:28:54;98378.66;;;8.33;69.98
39487;BME280;25173;50.430;18.926;2022-11-15T03:32:22;98367.97;;;8.26;70.17
39487;BME280;25173;50.430;18.926;2022-11-15T03:35:44;98367.16;;;8.26;70.17
39487;BME280;25173;50.430;18.926;2022-11-15T03:39:06;98359.00;;;8.26;70.26
39487;BME280;25173;50.430;18.926;2022-11-15T03:43:04;98366.97;;;8.32;70.20
39487;BME280;25173;50.430;18.926;2022-11-15T03:46:32;98362.88;;;8.30;70.11
39487;BME280;25173;50.430;18.926;2022-11-15T03:49:58;98357.94;;;8.27;70.15
39487;BME280;25173;50.430;18.926;2022-11-15T03:53:18;98359.50;;;8.23;70.16
39487;BME280;25173;50.430;18.926;2022-11-15T03:56:37;98363.31;;;8.22;70.18
39487;BME280;25173;50.430;18.926;2022-11-15T03:59:57;98358.72;;;8.22;70.34
39487;BME280;25173;50.430;18.926;2022-11-15T04:03:16;98346.50;;;8.25;70.32
39487;BME280;25173;50.430;18.926;2022-11-15T04:06:35;98347.59;;;8.24;69.94
39487;BME280;25173;50.430;18.926;2022-11-15T04:09:55;98349.13;;;8.14;70.05
39487;BME280;25173;50.430;18.926;2022-11-15T04:13:22;98343.63;;;8.09;70.04
39487;BME280;25173;50.430;18.926;2022-11-15T04:16:42;98346.03;;;8.06;70.26
39487;BME280;25173;50.430;18.926;2022-11-15T04:20:04;98336.84;;;8.07;70.32
39487;BME280;25173;50.430;18.926;2022-11-15T04:23:42;98335.44;;;8.04;70.03
39487;BME280;25173;50.430;18.926;2022-11-15T04:27:10;98329.53;;;8.07;70.23
39487;BME280;25173;50.430;18.926;2022-11-15T04:30:31;98327.59;;;8.08;70.27
39487;BME280;25173;50.430;18.926;2022-11-15T04:33:51;98321.06;;;8.04;70.05
39487;BME280;25173;50.430;18.926;2022-11-15T04:37:10;98316.31;;;7.94;70.25
39487;BME280;25173;50.430;18.926;2022-11-15T04:40:32;98317.72;;;7.97;70.55
39487;BME280;25173;50.430;18.926;2022-11-15T04:43:51;98301.75;;;8.00;70.59
39487;BME280;25173;50.430;18.926;2022-11-15T04:47:10;98300.69;;;8.01;70.27
39487;BME280;25173;50.430;18.926;2022-11-15T04:50:30;98295.25;;;8.01;70.02
39487;BME280;25173;50.430;18.926;2022-11-15T04:53:49;98290.28;;;7.93;69.89
39487;BME280;25173;50.430;18.926;2022-11-15T04:57:08;98288.03;;;7.85;69.96
39487;BME280;25173;50.430;18.926;2022-11-15T05:00:29;98286.88;;;7.81;69.94
39487;BME280;25173;50.430;18.926;2022-11-15T05:03:48;98293.63;;;7.78;69.79
39487;BME280;25173;50.430;18.926;2022-11-15T05:07:25;98294.16;;;7.75;69.92
39487;BME280;25173;50.430;18.926;2022-11-15T05:10:45;98294.59;;;7.67;69.79
39487;BME280;25173;50.430;18.926;2022-11-15T05:14:04;98289.84;;;7.58;70.17
39487;BME280;25173;50.430;18.926;2022-11-15T05:17:23;98286.59;;;7.56;70.15
39487;BME280;25173;50.430;18.926;2022-11-15T05:20:43;98291.44;;;7.54;70.04
39487;BME280;25173;50.430;18.926;2022-11-15T05:24:02;98275.91;;;7.49;70.23
39487;BME280;25173;50.430;18.926;2022-11-15T05:27:22;98275.66;;;7.51;70.29
39487;BME280;25173;50.430;18.926;2022-11-15T05:30:41;98268.59;;;7.50;70.22
39487;BME280;25173;50.430;18.926;2022-11-15T05:34:00;98273.84;;;7.56;70.25
39487;BME280;25173;50.430;18.926;2022-11-15T05:37:22;98268.69;;;7.55;70.28
39487;BME280;25173;50.430;18.926;2022-11-15T05:40:41;98261.19;;;7.62;70.03
39487;BME280;25173;50.430;18.926;2022-11-15T05:44:01;98265.53;;;7.63;70.07
39487;BME280;25173;50.430;18.926;2022-11-15T05:47:25;98256.31;;;7.64;70.00
39487;BME280;25173;50.430;18.926;2022-11-15T05:50:47;98260.63;;;7.60;70.03
39487;BME280;25173;50.430;18.926;2022-11-15T05:54:06;98265.22;;;7.59;69.96
39487;BME280;25173;50.430;18.926;2022-11-15T05:57:25;98261.69;;;7.59;70.10
39487;BME280;25173;50.430;18.926;2022-11-15T06:00:44;98263.38;;;7.65;70.06
39487;BME280;25173;50.430;18.926;2022-11-15T06:04:04;98265.66;;;7.73;69.70
39487;BME280;25173;50.430;18.926;2022-11-15T06:07:23;98266.28;;;7.80;69.52
39487;BME280;25173;50.430;18.926;2022-11-15T06:10:43;98269.22;;;7.78;69.21
39487;BME280;25173;50.430;18.926;2022-11-15T06:14:02;98272.47;;;7.75;69.60
39487;BME280;25173;50.430;18.926;2022-11-15T06:17:21;98269.41;;;7.72;69.99
39487;BME280;25173;50.430;18.926;2022-11-15T06:20:41;98269.94;;;7.69;69.73
39487;BME280;25173;50.430;18.926;2022-11-15T06:24:00;98270.44;;;7.66;69.82
39487;BME280;25173;50.430;18.926;2022-11-15T06:27:20;98277.50;;;7.67;69.93
39487;BME280;25173;50.430;18.926;2022-11-15T06:30:39;98283.56;;;7.74;70.16
39487;BME280;25173;50.430;18.926;2022-11-15T06:33:58;98265.19;;;7.81;69.51
39487;BME280;25173;50.430;18.926;2022-11-15T06:37:18;98272.41;;;7.92;69.65
39487;BME280;25173;50.430;18.926;2022-11-15T06:40:38;98270.84;;;8.01;69.28
39487;BME280;25173;50.430;18.926;2022-11-15T06:43:58;98269.88;;;8.12;69.19
39487;BME280;25173;50.430;18.926;2022-11-15T06:47:17;98273.00;;;8.26;69.28
39487;BME280;25173;50.430;18.926;2022-11-15T06:50:36;98281.59;;;8.40;68.72
39487;BME280;25173;50.430;18.926;2022-11-15T06:53:56;98276.50;;;8.48;68.64
39487;BME280;25173;50.430;18.926;2022-11-15T06:57:15;98276.84;;;8.57;68.55
39487;BME280;25173;50.430;18.926;2022-11-15T07:00:35;98276.31;;;8.60;68.56
39487;BME280;25173;50.430;18.926;2022-11-15T07:03:54;98285.84;;;8.63;68.88
39487;BME280;25173;50.430;18.926;2022-11-15T07:07:13;98287.00;;;8.67;68.57
39487;BME280;25173;50.430;18.926;2022-11-15T07:10:33;98279.94;;;8.66;68.81
39487;BME280;25173;50.430;18.926;2022-11-15T07:13:52;98288.94;;;8.71;69.25
39487;BME280;25173;50.430;18.926;2022-11-15T07:17:11;98285.75;;;8.79;69.61
39487;BME280;25173;50.430;18.926;2022-11-15T07:20:30;98288.50;;;8.89;69.30
39487;BME280;25173;50.430;18.926;2022-11-15T07:23:50;98282.09;;;9.01;69.01
39487;BME280;25173;50.430;18.926;2022-11-15T07:27:09;98277.75;;;9.05;68.43
39487;BME280;25173;50.430;18.926;2022-11-15T07:30:29;98271.31;;;9.11;68.82
39487;BME280;25173;50.430;18.926;2022-11-15T07:33:48;98272.44;;;9.20;68.65
39487;BME280;25173;50.430;18.926;2022-11-15T07:37:07;98269.22;;;9.28;68.45
39487;BME280;25173;50.430;18.926;2022-11-15T07:40:28;98270.38;;;9.42;68.42
39487;BME280;25173;50.430;18.926;2022-11-15T07:43:51;98273.16;;;9.52;68.16
39487;BME280;25173;50.430;18.926;2022-11-15T07:47:11;98270.50;;;9.62;67.93
39487;BME280;25173;50.430;18.926;2022-11-15T07:50:30;98269.69;;;9.72;67.55
39487;BME280;25173;50.430;18.926;2022-11-15T07:53:50;98273.00;;;9.79;67.54
39487;BME280;25173;50.430;18.926;2022-11-15T07:57:09;98265.72;;;9.90;67.41
39487;BME280;25173;50.430;18.926;2022-11-15T08:00:29;98262.97;;;9.90;67.32
39487;BME280;25173;50.430;18.926;2022-11-15T08:03:48;98253.75;;;9.91;67.46
39487;BME280;25173;50.430;18.926;2022-11-15T08:07:07;98244.75;;;9.95;67.44
39487;BME280;25173;50.430;18.926;2022-11-15T08:10:28;98246.13;;;9.93;67.28
39487;BME280;25173;50.430;18.926;2022-11-15T08:13:48;98242.88;;;9.96;67.88
39487;BME280;25173;50.430;18.926;2022-11-15T08:17:07;98243.69;;;10.01;68.18
39487;BME280;25173;50.430;18.926;2022-11-15T08:20:28;98236.63;;;10.16;68.20
39487;BME280;25173;50.430;18.926;2022-11-15T08:23:50;98231.00;;;10.32;68.19
39487;BME280;25173;50.430;18.926;2022-11-15T08:27:10;98232.34;;;10.45;68.11
39487;BME280;25173;50.430;18.926;2022-11-15T08:30:37;98233.19;;;10.61;68.37
39487;BME280;25173;50.430;18.926;2022-11-15T08:33:57;98235.38;;;10.79;68.63
39487;BME280;25173;50.430;18.926;2022-11-15T08:37:16;98234.00;;;10.97;68.45
39487;BME280;25173;50.430;18.926;2022-11-15T08:40:36;98225.50;;;11.13;68.13
39487;BME280;25173;50.430;18.926;2022-11-15T08:43:55;98227.94;;;11.25;67.97
39487;BME280;25173;50.430;18.926;2022-11-15T08:47:15;98221.34;;;11.36;68.01
39487;BME280;25173;50.430;18.926;2022-11-15T08:50:34;98215.06;;;11.46;67.61
39487;BME280;25173;50.430;18.926;2022-11-15T08:53:53;98213.13;;;11.51;67.54
39487;BME280;25173;50.430;18.926;2022-11-15T08:57:13;98216.31;;;11.63;67.50
39487;BME280;25173;50.430;18.926;2022-11-15T09:00:33;98210.59;;;11.70;67.41
39487;BME280;25173;50.430;18.926;2022-11-15T09:03:51;98204.00;;;11.81;67.30
39487;BME280;25173;50.430;18.926;2022-11-15T09:07:11;98206.41;;;11.93;67.51
39487;BME280;25173;50.430;18.926;2022-11-15T09:10:32;98210.16;;;12.07;67.06
39487;BME280;25173;50.430;18.926;2022-11-15T09:13:51;98210.28;;;12.26;67.01
39487;BME280;25173;50.430;18.926;2022-11-15T09:17:10;98208.22;;;12.47;66.66
39487;BME280;25173;50.430;18.926;2022-11-15T09:20:30;98208.06;;;12.67;66.23
39487;BME280;25173;50.430;18.926;2022-11-15T09:23:52;98212.53;;;12.87;66.12
39487;BME280;25173;50.430;18.926;2022-11-15T09:27:11;98206.31;;;13.05;65.98
39487;BME280;25173;50.430;18.926;2022-11-15T09:30:31;98200.72;;;13.20;65.42
39487;BME280;25173;50.430;18.926;2022-11-15T09:33:50;98193.53;;;13.29;65.18
39487;BME280;25173;50.430;18.926;2022-11-15T09:37:10;98187.53;;;13.27;64.88
39487;BME280;25173;50.430;18.926;2022-11-15T09:40:31;98184.13;;;13.40;65.76
39487;BME280;25173;50.430;18.926;2022-11-15T09:47:49;98162.34;;;13.73;65.19
39487;BME280;25173;50.430;18.926;2022-11-15T09:51:36;98163.84;;;13.84;64.38
39487;BME280;25173;50.430;18.926;2022-11-15T09:54:37;98158.53;;;13.92;63.70
39487;BME280;25173;50.430;18.926;2022-11-15T09:57:59;98148.81;;;14.00;64.19
39487;BME280;25173;50.430;18.926;2022-11-15T10:01:06;98145.91;;;14.10;63.61
39487;BME280;25173;50.430;18.926;2022-11-15T10:04:08;98143.91;;;14.16;63.31
39487;BME280;25173;50.430;18.926;2022-11-15T10:11:00;98140.81;;;14.22;62.93
39487;BME280;25173;50.430;18.926;2022-11-15T10:14:15;98143.47;;;14.27;62.40
39487;BME280;25173;50.430;18.926;2022-11-15T10:20:28;98137.06;;;14.32;62.45
39487;BME280;25173;50.430;18.926;2022-11-15T10:23:29;98134.63;;;14.30;62.39
39487;BME280;25173;50.430;18.926;2022-11-15T10:26:32;98130.19;;;14.34;62.38
39487;BME280;25173;50.430;18.926;2022-11-15T10:29:32;98135.91;;;14.38;62.39
39487;BME280;25173;50.430;18.926;2022-11-15T10:32:34;98133.59;;;14.45;61.92
39487;BME280;25173;50.430;18.926;2022-11-15T10:35:36;98133.81;;;14.49;61.99
39487;BME280;25173;50.430;18.926;2022-11-15T10:41:49;98134.53;;;14.54;61.38
39487;BME280;25173;50.430;18.926;2022-11-15T10:44:50;98129.56;;;14.43;61.10
39487;BME280;25173;50.430;18.926;2022-11-15T10:47:51;98130.78;;;14.50;61.38
39487;BME280;25173;50.430;18.926;2022-11-15T10:50:53;98134.25;;;14.56;61.03
39487;BME280;25173;50.430;18.926;2022-11-15T10:53:57;98114.38;;;14.64;61.45
39487;BME280;25173;50.430;18.926;2022-11-15T10:57:04;98109.44;;;14.80;61.08
39487;BME280;25173;50.430;18.926;2022-11-15T11:03:36;98108.22;;;14.99;59.88
39487;BME280;25173;50.430;18.926;2022-11-15T11:09:57;98104.97;;;15.25;60.17
39487;BME280;25173;50.430;18.926;2022-11-15T11:13:20;98105.16;;;15.42;59.47
39487;BME280;25173;50.430;18.926;2022-11-15T11:23:16;98095.56;;;15.80;59.23
39487;BME280;25173;50.430;18.926;2022-11-15T11:26:41;98087.16;;;15.99;57.83
39487;BME280;25173;50.430;18.926;2022-11-15T11:46:32;98061.97;;;16.73;56.27
39487;BME280;25173;50.430;18.926;2022-11-15T11:50:15;98064.47;;;16.60;56.81
39487;BME280;25173;50.430;18.926;2022-11-15T11:53:30;98058.41;;;16.50;57.08
39487;BME280;25173;50.430;18.926;2022-11-15T11:56:35;98051.06;;;16.37;57.60
39487;BME280;25173;50.430;18.926;2022-11-15T11:59:51;98041.94;;;16.27;57.31
39487;BME280;25173;50.430;18.926;2022-11-15T12:03:16;98038.38;;;16.27;57.22
39487;BME280;25173;50.430;18.926;2022-11-15T12:06:33;98031.09;;;16.22;57.92
39487;BME280;25173;50.430;18.926;2022-11-15T12:09:38;98026.59;;;16.04;55.95
39487;BME280;25173;50.430;18.926;2022-11-15T12:16:05;98016.28;;;15.87;58.01
39487;BME280;25173;50.430;18.926;2022-11-15T12:19:07;98022.53;;;15.79;58.56
39487;BME280;25173;50.430;18.926;2022-11-15T12:23:11;98019.31;;;15.77;58.23
39487;BME280;25173;50.430;18.926;2022-11-15T12:25:54;98009.59;;;15.80;58.62
39487;BME280;25173;50.430;18.926;2022-11-15T12:29:16;98003.94;;;15.76;58.00
39487;BME280;25173;50.430;18.926;2022-11-15T12:32:34;97994.06;;;15.75;58.47
39487;BME280;25173;50.430;18.926;2022-11-15T12:35:38;98000.44;;;15.84;58.82
39487;BME280;25173;50.430;18.926;2022-11-15T12:44:57;97978.66;;;15.88;58.76
39487;BME280;25173;50.430;18.926;2022-11-15T12:55:00;97977.84;;;15.87;59.08
39487;BME280;25173;50.430;18.926;2022-11-15T12:58:26;97971.44;;;15.92;58.75
39487;BME280;25173;50.430;18.926;2022-11-15T13:04:31;97964.47;;;15.95;59.05
39487;BME280;25173;50.430;18.926;2022-11-15T13:10:36;97967.06;;;15.91;59.16
39487;BME280;25173;50.430;18.926;2022-11-15T13:13:44;97960.09;;;15.93;59.11
39487;BME280;25173;50.430;18.926;2022-11-15T13:16:46;97953.50;;;15.95;59.28
39487;BME280;25173;50.430;18.926;2022-11-15T13:23:23;97954.34;;;16.04;59.24
39487;BME280;25173;50.430;18.926;2022-11-15T13:26:23;97941.13;;;16.06;59.55
39487;BME280;25173;50.430;18.926;2022-11-15T13:29:23;97942.84;;;16.02;59.31
39487;BME280;25173;50.430;18.926;2022-11-15T13:32:25;97944.13;;;15.96;59.30
39487;BME280;25173;50.430;18.926;2022-11-15T13:35:29;97943.63;;;15.93;59.35
39487;BME280;25173;50.430;18.926;2022-11-15T13:38:37;97941.16;;;15.83;59.53
39487;BME280;25173;50.430;18.926;2022-11-15T13:41:48;97939.78;;;15.72;59.62
39487;BME280;25173;50.430;18.926;2022-11-15T13:47:57;97941.47;;;15.60;59.95
39487;BME280;25173;50.430;18.926;2022-11-15T13:50:58;97934.19;;;15.55;60.18
39487;BME280;25173;50.430;18.926;2022-11-15T13:54:21;97929.81;;;15.54;60.09
39487;BME280;25173;50.430;18.926;2022-11-15T13:57:30;97926.97;;;15.45;60.09
39487;BME280;25173;50.430;18.926;2022-11-15T14:00:43;97927.53;;;15.34;60.37
39487;BME280;25173;50.430;18.926;2022-11-15T14:03:59;97927.31;;;15.30;60.47
39487;BME280;25173;50.430;18.926;2022-11-15T14:07:01;97926.00;;;15.28;60.58
39487;BME280;25173;50.430;18.926;2022-11-15T14:10:28;97919.09;;;15.30;60.15
39487;BME280;25173;50.430;18.926;2022-11-15T14:13:30;97927.63;;;15.29;60.41
39487;BME280;25173;50.430;18.926;2022-11-15T14:19:37;97915.53;;;15.30;60.39
39487;BME280;25173;50.430;18.926;2022-11-15T14:22:51;97913.59;;;15.30;60.42
39487;BME280;25173;50.430;18.926;2022-11-15T14:25:56;97908.72;;;15.27;60.61
39487;BME280;25173;50.430;18.926;2022-11-15T14:28:57;97905.50;;;15.25;60.53
39487;BME280;25173;50.430;18.926;2022-11-15T14:32:22;97906.94;;;15.23;60.77
39487;BME280;25173;50.430;18.926;2022-11-15T14:35:23;97899.00;;;15.21;60.71
39487;BME280;25173;50.430;18.926;2022-11-15T14:38:25;97901.06;;;15.15;60.89
39487;BME280;25173;50.430;18.926;2022-11-15T14:41:26;97899.75;;;15.13;60.91
39487;BME280;25173;50.430;18.926;2022-11-15T14:44:26;97896.00;;;15.09;60.89
39487;BME280;25173;50.430;18.926;2022-11-15T14:47:27;97890.81;;;15.07;61.18
39487;BME280;25173;50.430;18.926;2022-11-15T14:50:27;97886.47;;;15.06;61.03
39487;BME280;25173;50.430;18.926;2022-11-15T14:53:28;97890.31;;;15.05;61.08
39487;BME280;25173;50.430;18.926;2022-11-15T14:56:29;97875.31;;;15.03;61.11
39487;BME280;25173;50.430;18.926;2022-11-15T14:59:29;97872.06;;;15.01;61.28
39487;BME280;25173;50.430;18.926;2022-11-15T15:02:30;97871.38;;;14.95;61.29
39487;BME280;25173;50.430;18.926;2022-11-15T15:05:34;97878.41;;;14.88;61.37
39487;BME280;25173;50.430;18.926;2022-11-15T15:08:35;97868.06;;;14.71;61.45
39487;BME280;25173;50.430;18.926;2022-11-15T15:11:36;97865.66;;;14.56;61.80
39487;BME280;25173;50.430;18.926;2022-11-15T15:14:36;97861.84;;;14.43;62.05
39487;BME280;25173;50.430;18.926;2022-11-15T15:17:37;97861.19;;;14.32;62.25
39487;BME280;25173;50.430;18.926;2022-11-15T15:20:39;97858.34;;;14.24;62.46
39487;BME280;25173;50.430;18.926;2022-11-15T15:23:40;97862.63;;;14.16;62.48
39487;BME280;25173;50.430;18.926;2022-11-15T15:26:41;97856.72;;;14.09;62.49
39487;BME280;25173;50.430;18.926;2022-11-15T15:29:43;97857.94;;;14.03;62.85
39487;BME280;25173;50.430;18.926;2022-11-15T15:32:44;97848.31;;;13.92;63.03
39487;BME280;25173;50.430;18.926;2022-11-15T15:35:45;97855.00;;;13.86;63.17
39487;BME280;25173;50.430;18.926;2022-11-15T15:38:45;97850.13;;;13.83;63.11
39487;BME280;25173;50.430;18.926;2022-11-15T15:41:47;97840.81;;;13.84;63.05
39487;BME280;25173;50.430;18.926;2022-11-15T15:44:50;97842.75;;;13.83;62.88
39487;BME280;25173;50.430;18.926;2022-11-15T15:47:51;97843.63;;;13.79;62.71
39487;BME280;25173;50.430;18.926;2022-11-15T15:50:52;97843.44;;;13.75;62.94
39487;BME280;25173;50.430;18.926;2022-11-15T15:53:52;97838.06;;;13.70;63.11
39487;BME280;25173;50.430;18.926;2022-11-15T15:56:57;97840.59;;;13.67;62.75
39487;BME280;25173;50.430;18.926;2022-11-15T15:59:57;97836.91;;;13.57;62.78
39487;BME280;25173;50.430;18.926;2022-11-15T16:02:58;97838.22;;;13.46;63.18
39487;BME280;25173;50.430;18.926;2022-11-15T16:05:59;97837.44;;;13.27;63.41
39487;BME280;25173;50.430;18.926;2022-11-15T16:08:59;97834.94;;;13.12;63.73
39487;BME280;25173;50.430;18.926;2022-11-15T16:12:00;97829.03;;;13.05;63.89
39487;BME280;25173;50.430;18.926;2022-11-15T16:15:01;97835.41;;;13.00;64.01
39487;BME280;25173;50.430;18.926;2022-11-15T16:18:03;97832.91;;;13.04;64.16
39487;BME280;25173;50.430;18.926;2022-11-15T16:21:04;97835.03;;;13.07;64.07
39487;BME280;25173;50.430;18.926;2022-11-15T16:24:05;97834.31;;;13.01;64.20
39487;BME280;25173;50.430;18.926;2022-11-15T16:27:12;97832.09;;;13.03;64.48
39487;BME280;25173;50.430;18.926;2022-11-15T16:30:15;97827.94;;;13.06;64.40
39487;BME280;25173;50.430;18.926;2022-11-15T16:33:16;97826.47;;;13.13;64.48
39487;BME280;25173;50.430;18.926;2022-11-15T16:36:23;97828.22;;;13.23;64.31
39487;BME280;25173;50.430;18.926;2022-11-15T16:39:24;97830.06;;;13.28;64.06
39487;BME280;25173;50.430;18.926;2022-11-15T16:42:25;97830.47;;;13.35;63.93
39487;BME280;25173;50.430;18.926;2022-11-15T16:45:26;97828.88;;;13.34;63.82
39487;BME280;25173;50.430;18.926;2022-11-15T16:48:28;97827.94;;;13.25;64.10
39487;BME280;25173;50.430;18.926;2022-11-15T16:51:29;97822.19;;;13.26;64.30
39487;BME280;25173;50.430;18.926;2022-11-15T16:54:29;97822.59;;;13.33;64.18
39487;BME280;25173;50.430;18.926;2022-11-15T16:57:30;97820.97;;;13.32;64.21
39487;BME280;25173;50.430;18.926;2022-11-15T17:00:30;97814.97;;;13.30;64.32
39487;BME280;25173;50.430;18.926;2022-11-15T17:03:31;97812.84;;;13.27;64.62
39487;BME280;25173;50.430;18.926;2022-11-15T17:06:32;97806.56;;;13.27;64.59
39487;BME280;25173;50.430;18.926;2022-11-15T17:09:32;97806.19;;;13.33;64.71
39487;BME280;25173;50.430;18.926;2022-11-15T17:12:34;97797.59;;;13.40;64.50
39487;BME280;25173;50.430;18.926;2022-11-15T17:15:36;97813.38;;;13.43;64.36
39487;BME280;25173;50.430;18.926;2022-11-15T17:18:36;97805.41;;;13.46;64.34
39487;BME280;25173;50.430;18.926;2022-11-15T17:21:37;97803.19;;;13.48;64.49
39487;BME280;25173;50.430;18.926;2022-11-15T17:24:37;97797.91;;;13.52;64.44
39487;BME280;25173;50.430;18.926;2022-11-15T17:27:38;97797.31;;;13.55;64.50
39487;BME280;25173;50.430;18.926;2022-11-15T17:30:42;97791.22;;;13.58;64.53
39487;BME280;25173;50.430;18.926;2022-11-15T17:33:42;97784.94;;;13.57;64.48
39487;BME280;25173;50.430;18.926;2022-11-15T17:36:43;97780.28;;;13.58;64.47
39487;BME280;25173;50.430;18.926;2022-11-15T17:39:43;97776.13;;;13.60;64.42
39487;BME280;25173;50.430;18.926;2022-11-15T17:42:44;97777.13;;;13.65;64.46
39487;BME280;25173;50.430;18.926;2022-11-15T17:45:45;97776.84;;;13.66;64.53
39487;BME280;25173;50.430;18.926;2022-11-15T17:48:46;97762.84;;;13.68;64.52
39487;BME280;25173;50.430;18.926;2022-11-15T17:51:47;97756.56;;;13.67;64.44
39487;BME280;25173;50.430;18.926;2022-11-15T17:54:48;97756.56;;;13.67;64.57
39487;BME280;25173;50.430;18.926;2022-11-15T17:57:48;97754.63;;;13.68;64.69
39487;BME280;25173;50.430;18.926;2022-11-15T18:00:49;97756.28;;;13.69;64.43
39487;BME280;25173;50.430;18.926;2022-11-15T18:03:51;97749.16;;;13.68;64.36
39487;BME280;25173;50.430;18.926;2022-11-15T18:06:53;97753.72;;;13.58;64.24
39487;BME280;25173;50.430;18.926;2022-11-15T18:09:54;97754.34;;;13.55;64.39
39487;BME280;25173;50.430;18.926;2022-11-15T18:12:55;97743.88;;;13.57;64.34
39487;BME280;25173;50.430;18.926;2022-11-15T18:15:55;97744.09;;;13.61;64.10
39487;BME280;25173;50.430;18.926;2022-11-15T18:19:03;97730.41;;;13.61;64.06
39487;BME280;25173;50.430;18.926;2022-11-15T18:22:08;97735.09;;;13.60;63.95
39487;BME280;25173;50.430;18.926;2022-11-15T18:25:09;97737.81;;;13.60;63.96
39487;BME280;25173;50.430;18.926;2022-11-15T18:28:10;97739.75;;;13.60;63.88
39487;BME280;25173;50.430;18.926;2022-11-15T18:31:25;97742.19;;;13.62;63.85
39487;BME280;25173;50.430;18.926;2022-11-15T18:34:27;97737.13;;;13.55;63.96